createdAt,value
2022-08-24T00:00:31.792Z,100.00
2022-08-24T00:02:58.592Z,100.00
2022-08-24T00:05:25.294Z,100.00
2022-08-24T00:07:51.935Z,100.00
2022-08-24T00:10:21.154Z,100.00
2022-08-24T00:12:47.936Z,100.00
2022-08-24T00:15:15.695Z,100.00
2022-08-24T00:17:42.971Z,100.00
2022-08-24T00:20:11.510Z,100.00
2022-08-24T00:22:39.019Z,100.00
2022-08-24T00:25:06.111Z,100.00
2022-08-24T00:27:32.912Z,100.00
2022-08-24T00:29:59.499Z,100.00
2022-08-24T00:32:26.218Z,100.00
2022-08-24T00:34:58.616Z,100.00
2022-08-24T00:37:28.479Z,100.00
2022-08-24T00:39:56.110Z,100.00
2022-08-24T00:42:23.398Z,100.00
2022-08-24T00:44:50.001Z,100.00
2022-08-24T00:47:25.828Z,100.00
2022-08-24T00:50:01.208Z,100.00
2022-08-24T00:52:33.418Z,100.00
2022-08-24T00:55:13.133Z,100.00
2022-08-24T00:57:43.178Z,100.00
2022-08-24T01:00:16.348Z,100.00
2022-08-24T01:02:45.712Z,100.00
2022-08-24T01:05:13.614Z,100.00
2022-08-24T01:07:41.254Z,100.00
2022-08-24T01:10:14.144Z,100.00
2022-08-24T01:12:48.225Z,100.00
2022-08-24T01:15:29.787Z,100.00
2022-08-24T01:18:12.167Z,100.00
2022-08-24T01:20:39.046Z,100.00
2022-08-24T01:23:09.447Z,100.00
2022-08-24T01:25:37.671Z,100.00
2022-08-24T01:28:10.397Z,100.00
2022-08-24T01:30:37.397Z,100.00
2022-08-24T01:33:08.973Z,100.00
2022-08-24T01:35:38.238Z,100.00
2022-08-24T01:38:08.736Z,100.00
2022-08-24T01:40:53.658Z,100.00
2022-08-24T01:43:20.357Z,100.00
2022-08-24T01:45:46.921Z,100.00
2022-08-24T01:48:15.335Z,100.00
2022-08-24T01:50:49.676Z,100.00
2022-08-24T01:53:16.659Z,100.00
2022-08-24T01:55:43.867Z,100.00
2022-08-24T01:58:10.493Z,100.00
2022-08-24T02:00:37.732Z,100.00
2022-08-24T02:03:05.184Z,100.00
2022-08-24T02:05:32.125Z,100.00
2022-08-24T02:07:58.923Z,100.00
2022-08-24T02:10:26.470Z,100.00
2022-08-24T02:13:00.669Z,100.00
2022-08-24T02:15:34.743Z,100.00
2022-08-24T02:18:01.558Z,100.00
2022-08-24T02:20:28.537Z,100.00
2022-08-24T02:22:57.309Z,100.00
2022-08-24T02:25:25.030Z,100.00
2022-08-24T02:27:51.965Z,100.00
2022-08-24T02:30:19.318Z,100.00
2022-08-24T02:32:45.919Z,100.00
2022-08-24T02:35:12.723Z,100.00
2022-08-24T02:37:43.532Z,100.00
2022-08-24T02:40:12.543Z,100.00
2022-08-24T02:42:39.761Z,100.00
2022-08-24T02:45:08.016Z,100.00
2022-08-24T02:47:38.851Z,100.00
2022-08-24T02:50:08.220Z,100.00
2022-08-24T02:52:37.205Z,100.00
2022-08-24T02:55:04.639Z,100.00
2022-08-24T02:57:31.425Z,100.00
2022-08-24T02:59:58.089Z,100.00
2022-08-24T03:02:24.777Z,100.00
2022-08-24T03:04:51.406Z,100.00
2022-08-24T03:07:18.080Z,100.00
2022-08-24T03:09:44.718Z,100.00
2022-08-24T03:12:11.539Z,100.00
2022-08-24T03:14:38.188Z,100.00
2022-08-24T03:17:05.292Z,100.00
2022-08-24T03:19:31.895Z,100.00
2022-08-24T03:21:58.530Z,100.00
2022-08-24T03:24:25.091Z,100.00
2022-08-24T03:26:52.475Z,100.00
2022-08-24T03:29:19.191Z,100.00
2022-08-24T03:31:46.642Z,100.00
2022-08-24T03:34:13.594Z,100.00
2022-08-24T03:36:41.735Z,100.00
2022-08-24T03:39:08.371Z,100.00
2022-08-24T03:41:35.401Z,100.00
2022-08-24T03:44:04.223Z,100.00
2022-08-24T03:46:36.810Z,100.00
2022-08-24T03:49:08.710Z,100.00
2022-08-24T03:51:37.012Z,100.00
2022-08-24T03:54:05.817Z,100.00
2022-08-24T03:56:32.540Z,100.00
2022-08-24T03:58:59.841Z,100.00
2022-08-24T04:01:27.032Z,100.00
2022-08-24T04:03:55.232Z,100.00
2022-08-24T04:06:22.749Z,100.00
2022-08-24T04:08:50.025Z,100.00
2022-08-24T04:11:20.035Z,100.00
2022-08-24T04:13:48.152Z,100.00
2022-08-24T04:16:17.692Z,100.00
2022-08-24T04:18:44.767Z,100.00
2022-08-24T04:21:29.247Z,100.00
2022-08-24T04:23:57.399Z,100.00
2022-08-24T04:26:43.763Z,100.00
2022-08-24T04:29:14.778Z,100.00
2022-08-24T04:31:43.059Z,100.00
2022-08-24T04:34:10.592Z,100.00
2022-08-24T04:36:37.338Z,100.00
2022-08-24T04:39:05.337Z,100.00
2022-08-24T04:41:32.004Z,100.00
2022-08-24T04:43:59.750Z,100.00
2022-08-24T04:46:27.579Z,100.00
2022-08-24T04:48:54.735Z,100.00
2022-08-24T04:51:21.417Z,100.00
2022-08-24T04:53:49.627Z,100.00
2022-08-24T04:56:20.158Z,100.00
2022-08-24T04:58:47.257Z,100.00
2022-08-24T05:01:19.320Z,100.00
2022-08-24T05:03:49.211Z,100.00
2022-08-24T05:06:18.591Z,100.00
2022-08-24T05:08:47.341Z,100.00
2022-08-24T05:11:15.196Z,100.00
2022-08-24T05:13:41.864Z,100.00
2022-08-24T05:16:10.676Z,100.00
2022-08-24T05:18:37.883Z,100.00
2022-08-24T05:21:12.241Z,100.00
2022-08-24T05:23:40.169Z,100.00
2022-08-24T05:26:12.746Z,100.00
2022-08-24T05:28:39.944Z,100.00
2022-08-24T05:31:20.100Z,100.00
2022-08-24T05:33:48.282Z,100.00
2022-08-24T05:36:19.251Z,100.00
2022-08-24T05:38:47.895Z,100.00
2022-08-24T05:41:15.800Z,100.00
2022-08-24T05:43:43.515Z,100.00
2022-08-24T05:46:10.243Z,100.00
2022-08-24T05:48:37.791Z,100.00
2022-08-24T05:51:05.982Z,100.00
2022-08-24T05:53:33.281Z,100.00
2022-08-24T05:56:05.231Z,100.00
2022-08-24T05:58:31.945Z,100.00
2022-08-24T06:01:00.079Z,100.00
2022-08-24T06:03:27.173Z,100.00
2022-08-24T06:05:55.105Z,100.00
2022-08-24T06:08:22.040Z,100.00
2022-08-24T06:10:48.875Z,100.00
2022-08-24T06:13:16.904Z,100.00
2022-08-24T06:15:51.119Z,100.00
2022-08-24T06:18:30.626Z,100.00
2022-08-24T06:20:57.816Z,100.00
2022-08-24T06:23:24.953Z,100.00
2022-08-24T06:26:07.176Z,100.00
2022-08-24T06:28:33.759Z,100.00
2022-08-24T06:31:07.435Z,100.00
2022-08-24T06:33:34.096Z,100.00
2022-08-24T06:36:00.931Z,100.00
2022-08-24T06:38:27.739Z,100.00
2022-08-24T06:40:54.365Z,100.00
2022-08-24T06:43:20.996Z,100.00
2022-08-24T06:45:47.625Z,100.00
2022-08-24T06:48:14.337Z,100.00
2022-08-24T06:50:41.134Z,100.00
2022-08-24T06:53:08.039Z,100.00
2022-08-24T06:55:34.919Z,100.00
2022-08-24T06:58:02.656Z,100.00
2022-08-24T07:00:32.476Z,100.00
2022-08-24T07:02:59.091Z,100.00
2022-08-24T07:05:26.022Z,100.00
2022-08-24T07:07:53.487Z,100.00
2022-08-24T07:10:22.941Z,100.00
2022-08-24T07:12:49.682Z,100.00
2022-08-24T07:15:16.720Z,100.00
2022-08-24T07:17:43.360Z,100.00
2022-08-24T07:20:10.725Z,100.00
2022-08-24T07:22:37.332Z,100.00
2022-08-24T07:25:04.974Z,100.00
2022-08-24T07:27:31.693Z,100.00
2022-08-24T07:30:23.257Z,100.00
2022-08-24T07:32:44.831Z,100.00
2022-08-24T07:35:11.435Z,100.00
2022-08-24T07:37:41.486Z,100.00
2022-08-24T07:40:09.342Z,100.00
2022-08-24T07:42:36.219Z,100.00
2022-08-24T07:45:03.725Z,100.00
2022-08-24T07:47:40.681Z,100.00
2022-08-24T07:50:13.274Z,100.00
2022-08-24T07:52:40.031Z,100.00
2022-08-24T07:55:06.930Z,100.00
2022-08-24T07:57:33.629Z,100.00
2022-08-24T08:00:01.035Z,100.00
2022-08-24T08:02:30.794Z,100.00
2022-08-24T08:05:03.495Z,100.00
2022-08-24T08:07:31.098Z,100.00
2022-08-24T08:09:57.885Z,100.00
2022-08-24T08:12:24.630Z,100.00
2022-08-24T08:14:51.238Z,100.00
2022-08-24T08:17:17.845Z,100.00
2022-08-24T08:19:44.595Z,100.00
2022-08-24T08:22:26.506Z,100.00
2022-08-24T08:24:53.082Z,100.00
2022-08-24T08:27:21.703Z,100.00
2022-08-24T08:29:49.046Z,100.00
2022-08-24T08:32:17.260Z,100.00
2022-08-24T08:34:44.929Z,100.00
2022-08-24T08:37:12.799Z,100.00
2022-08-24T08:39:40.630Z,100.00
2022-08-24T08:42:13.696Z,100.00
2022-08-24T08:45:03.207Z,100.00
2022-08-24T08:47:50.721Z,100.00
2022-08-24T08:50:23.992Z,100.00
2022-08-24T08:53:21.104Z,100.00
2022-08-24T08:55:59.957Z,100.00
2022-08-24T08:58:57.701Z,100.00
2022-08-24T09:01:48.005Z,99.00
2022-08-24T09:04:31.810Z,96.98
2022-08-24T09:07:14.183Z,93.61
2022-08-24T09:09:48.549Z,97.43
2022-08-24T09:12:36.730Z,100.00
2022-08-24T09:15:25.291Z,94.83
2022-08-24T09:18:08.412Z,95.02
2022-08-24T09:20:50.471Z,96.30
2022-08-24T09:23:19.113Z,94.57
2022-08-24T09:25:59.586Z,98.29
2022-08-24T09:28:43.743Z,97.28
2022-08-24T09:31:41.487Z,95.51
2022-08-24T09:34:18.630Z,95.60
2022-08-24T09:36:54.063Z,95.37
2022-08-24T09:39:21.783Z,94.41
2022-08-24T09:42:25.656Z,90.79
2022-08-24T09:45:22.722Z,90.41
2022-08-24T09:48:05.515Z,91.77
2022-08-24T09:51:02.707Z,92.44
2022-08-24T09:53:46.794Z,88.07
2022-08-24T09:56:29.594Z,90.40
2022-08-24T09:59:20.488Z,90.04
2022-08-24T10:02:06.061Z,92.62
2022-08-24T10:04:48.091Z,90.80
2022-08-24T10:07:41.854Z,91.09
2022-08-24T10:10:34.648Z,87.61
2022-08-24T10:13:14.204Z,84.35
2022-08-24T10:16:00.663Z,86.63
2022-08-24T10:18:42.239Z,85.34
2022-08-24T10:21:18.807Z,84.65
2022-08-24T10:24:15.900Z,87.10
2022-08-24T10:26:57.854Z,90.75
2022-08-24T10:29:45.329Z,90.68
2022-08-24T10:32:47.559Z,86.60
2022-08-24T10:35:20.263Z,86.14
2022-08-24T10:38:17.539Z,84.44
2022-08-24T10:40:54.537Z,84.25
2022-08-24T10:43:40.310Z,82.53
2022-08-24T10:46:38.348Z,78.98
2022-08-24T10:49:32.283Z,79.13
2022-08-24T10:52:15.113Z,82.13
2022-08-24T10:54:41.993Z,83.92
2022-08-24T10:57:22.621Z,85.02
2022-08-24T11:00:09.668Z,84.56
2022-08-24T11:02:43.492Z,83.68
2022-08-24T11:05:14.376Z,83.38
2022-08-24T11:07:58.754Z,82.61
2022-08-24T11:10:32.652Z,88.65
2022-08-24T11:13:23.686Z,83.23
2022-08-24T11:15:55.130Z,86.73
2022-08-24T11:18:23.066Z,88.94
2022-08-24T11:20:53.845Z,84.14
2022-08-24T11:23:28.359Z,87.30
2022-08-24T11:26:04.021Z,89.38
2022-08-24T11:28:44.259Z,86.73
2022-08-24T11:31:14.383Z,84.82
2022-08-24T11:33:52.966Z,79.30
2022-08-24T11:36:26.181Z,82.88
2022-08-24T11:39:23.355Z,79.96
2022-08-24T11:41:56.967Z,80.45
2022-08-24T11:44:37.526Z,82.65
2022-08-24T11:47:26.912Z,87.24
2022-08-24T11:50:24.080Z,80.38
2022-08-24T11:53:18.318Z,80.68
2022-08-24T11:56:05.331Z,81.47
2022-08-24T11:59:01.813Z,81.75
2022-08-24T12:01:34.900Z,80.78
2022-08-24T12:04:01.490Z,84.96
2022-08-24T12:06:50.939Z,84.40
2022-08-24T12:09:50.740Z,79.99
2022-08-24T12:12:33.624Z,80.19
2022-08-24T12:15:12.083Z,75.06
2022-08-24T12:17:47.496Z,75.90
2022-08-24T12:20:27.255Z,75.76
2022-08-24T12:22:59.088Z,76.94
2022-08-24T12:25:45.185Z,78.39
2022-08-24T12:28:14.963Z,78.25
2022-08-24T12:30:41.662Z,77.26
2022-08-24T12:33:13.249Z,78.34
2022-08-24T12:35:45.176Z,75.42
2022-08-24T12:38:19.924Z,78.50
2022-08-24T12:40:56.481Z,78.95
2022-08-24T12:43:38.055Z,73.71
2022-08-24T12:46:06.842Z,75.59
2022-08-24T12:48:42.724Z,77.46
2022-08-24T12:51:24.617Z,76.23
2022-08-24T12:54:07.528Z,80.39
2022-08-24T12:57:02.817Z,78.45
2022-08-24T12:59:31.851Z,79.21
2022-08-24T13:02:07.400Z,81.12
2022-08-24T13:04:40.309Z,79.07
2022-08-24T13:07:26.189Z,77.93
2022-08-24T13:09:52.711Z,77.98
2022-08-24T13:12:54.450Z,80.96
2022-08-24T13:15:46.283Z,81.20
2022-08-24T13:18:12.927Z,81.02
2022-08-24T13:20:58.095Z,81.08
2022-08-24T13:23:25.164Z,80.28
2022-08-24T13:25:54.150Z,80.21
2022-08-24T13:28:20.871Z,80.02
2022-08-24T13:31:02.960Z,79.94
2022-08-24T13:33:44.984Z,78.61
2022-08-24T13:36:42.670Z,78.25
2022-08-24T13:39:37.386Z,80.55
2022-08-24T13:42:19.527Z,77.14
2022-08-24T13:45:02.603Z,74.19
2022-08-24T13:47:29.215Z,74.84
2022-08-24T13:50:12.175Z,77.92
2022-08-24T13:53:04.877Z,76.55
2022-08-24T13:55:43.747Z,79.39
2022-08-24T13:58:39.288Z,79.75
2022-08-24T14:01:45.255Z,80.05
2022-08-24T14:04:27.229Z,81.26
2022-08-24T14:07:10.202Z,79.98
2022-08-24T14:09:53.811Z,79.14
2022-08-24T14:12:21.537Z,79.63
2022-08-24T14:15:06.715Z,74.92
2022-08-24T14:18:04.128Z,78.10
2022-08-24T14:20:30.837Z,77.39
2022-08-24T14:23:25.902Z,78.75
2022-08-24T14:26:27.739Z,79.03
2022-08-24T14:28:54.428Z,78.39
2022-08-24T14:31:28.502Z,78.67
2022-08-24T14:34:11.530Z,77.95
2022-08-24T14:36:57.275Z,76.42
2022-08-24T14:39:42.091Z,75.38
2022-08-24T14:42:17.374Z,78.72
2022-08-24T14:44:44.991Z,80.36
2022-08-24T14:47:42.187Z,78.22
2022-08-24T14:50:14.301Z,78.14
2022-08-24T14:52:56.235Z,81.47
2022-08-24T14:55:44.975Z,79.10
2022-08-24T14:58:29.068Z,76.70
2022-08-24T15:01:28.561Z,78.54
2022-08-24T15:04:37.117Z,78.32
2022-08-24T15:07:27.080Z,76.53
2022-08-24T15:09:55.763Z,75.61
2022-08-24T15:12:33.638Z,74.98
2022-08-24T15:15:34.059Z,75.89
2022-08-24T15:18:17.623Z,74.96
2022-08-24T15:21:03.069Z,75.69
2022-08-24T15:23:41.917Z,74.81
2022-08-24T15:26:18.276Z,72.79
2022-08-24T15:28:55.256Z,71.92
2022-08-24T15:31:28.293Z,73.35
2022-08-24T15:34:02.138Z,73.12
2022-08-24T15:36:32.964Z,71.94
2022-08-24T15:39:01.703Z,71.56
2022-08-24T15:41:31.336Z,72.15
2022-08-24T15:44:04.030Z,71.69
2022-08-24T15:46:43.049Z,72.04
2022-08-24T15:49:22.398Z,73.34
2022-08-24T15:51:53.382Z,71.97
2022-08-24T15:54:32.656Z,72.87
2022-08-24T15:57:04.588Z,71.87
2022-08-24T15:59:44.476Z,73.69
2022-08-24T16:02:26.538Z,72.46
2022-08-24T16:05:23.210Z,71.35
2022-08-24T16:08:05.168Z,70.95
2022-08-24T16:10:33.334Z,70.10
2022-08-24T16:13:25.640Z,69.50
2022-08-24T16:16:05.158Z,71.06
2022-08-24T16:18:53.578Z,68.46
2022-08-24T16:21:24.953Z,69.66
2022-08-24T16:24:02.107Z,67.56
2022-08-24T16:26:51.302Z,70.22
2022-08-24T16:29:45.994Z,71.78
2022-08-24T16:32:22.283Z,73.09
2022-08-24T16:35:18.250Z,71.67
2022-08-24T16:37:44.883Z,72.71
2022-08-24T16:40:12.589Z,73.16
2022-08-24T16:42:40.406Z,72.77
2022-08-24T16:45:10.145Z,72.64
2022-08-24T16:47:36.795Z,72.43
2022-08-24T16:50:05.393Z,72.28
2022-08-24T16:52:32.061Z,73.43
2022-08-24T16:55:00.534Z,73.44
2022-08-24T16:57:31.036Z,74.08
2022-08-24T16:59:58.140Z,75.83
2022-08-24T17:02:26.009Z,75.84
2022-08-24T17:04:54.608Z,76.15
2022-08-24T17:07:26.194Z,74.97
2022-08-24T17:09:54.254Z,76.15
2022-08-24T17:12:21.067Z,75.90
2022-08-24T17:14:48.002Z,76.45
2022-08-24T17:17:21.413Z,77.35
2022-08-24T17:19:51.117Z,78.48
2022-08-24T17:22:17.992Z,78.17
2022-08-24T17:24:45.819Z,78.54
2022-08-24T17:27:14.213Z,78.79
2022-08-24T17:29:43.528Z,79.42
2022-08-24T17:32:10.660Z,79.64
2022-08-24T17:34:37.607Z,79.58
2022-08-24T17:37:04.895Z,81.48
2022-08-24T17:39:31.650Z,81.15
2022-08-24T17:41:59.079Z,80.67
2022-08-24T17:44:29.484Z,82.24
2022-08-24T17:46:59.509Z,83.07
2022-08-24T17:49:28.007Z,84.18
2022-08-24T17:51:55.246Z,85.36
2022-08-24T17:54:22.539Z,84.80
2022-08-24T17:56:50.935Z,84.84
2022-08-24T17:59:31.527Z,87.12
2022-08-24T18:02:01.762Z,85.57
2022-08-24T18:04:31.366Z,87.93
2022-08-24T18:07:01.147Z,88.74
2022-08-24T18:09:37.115Z,89.81
2022-08-24T18:12:08.260Z,91.51
2022-08-24T18:14:36.029Z,91.57
2022-08-24T18:17:06.688Z,92.09
2022-08-24T18:19:34.090Z,93.21
2022-08-24T18:22:01.887Z,90.51
2022-08-24T18:24:32.466Z,89.65
2022-08-24T18:27:03.129Z,91.77
2022-08-24T18:29:39.264Z,92.44
2022-08-24T18:32:07.211Z,92.79
2022-08-24T18:34:34.659Z,92.97
2022-08-24T18:37:01.580Z,94.34
2022-08-24T18:39:28.632Z,94.39
2022-08-24T18:41:57.536Z,94.60
2022-08-24T18:44:27.231Z,95.14
2022-08-24T18:46:57.780Z,95.66
2022-08-24T18:49:24.406Z,95.63
2022-08-24T18:51:51.070Z,96.06
2022-08-24T18:54:20.605Z,96.30
2022-08-24T18:56:47.882Z,96.75
2022-08-24T18:59:16.699Z,97.21
2022-08-24T19:02:00.028Z,96.45
2022-08-24T19:04:32.907Z,97.75
2022-08-24T19:07:03.593Z,97.67
2022-08-24T19:09:34.187Z,98.10
2022-08-24T19:12:02.580Z,97.63
2022-08-24T19:14:29.270Z,97.82
2022-08-24T19:16:55.818Z,97.74
2022-08-24T19:19:22.579Z,97.80
2022-08-24T19:21:49.492Z,98.52
2022-08-24T19:24:19.285Z,98.33
2022-08-24T19:26:45.918Z,98.42
2022-08-24T19:29:12.590Z,98.63
2022-08-24T19:31:39.329Z,98.00
2022-08-24T19:34:06.715Z,98.53
2022-08-24T19:36:33.465Z,97.98
2022-08-24T19:39:00.223Z,99.21
2022-08-24T19:41:36.598Z,99.28
2022-08-24T19:44:27.590Z,100.00
2022-08-24T19:46:55.687Z,99.80
2022-08-24T19:49:22.919Z,99.40
2022-08-24T19:51:50.922Z,100.00
2022-08-24T19:54:17.698Z,100.00
2022-08-24T19:56:45.413Z,100.00
2022-08-24T19:59:24.682Z,100.00
2022-08-24T20:01:51.415Z,100.00
2022-08-24T20:04:18.101Z,100.00
2022-08-24T20:06:45.765Z,100.00
2022-08-24T20:09:12.426Z,100.00
2022-08-24T20:11:39.556Z,100.00
2022-08-24T20:14:07.158Z,100.00
2022-08-24T20:16:37.871Z,100.00
2022-08-24T20:19:05.582Z,100.00
2022-08-24T20:21:32.470Z,100.00
2022-08-24T20:24:00.768Z,100.00
2022-08-24T20:26:32.059Z,100.00
2022-08-24T20:28:59.098Z,100.00
2022-08-24T20:31:28.615Z,100.00
2022-08-24T20:33:57.154Z,100.00
2022-08-24T20:36:27.241Z,100.00
2022-08-24T20:38:56.595Z,100.00
2022-08-24T20:41:23.700Z,100.00
2022-08-24T20:43:50.346Z,100.00
2022-08-24T20:46:17.113Z,100.00
2022-08-24T20:48:44.979Z,100.00
2022-08-24T20:51:12.282Z,100.00
2022-08-24T20:53:38.911Z,100.00
2022-08-24T20:56:10.251Z,100.00
2022-08-24T20:58:39.125Z,100.00
2022-08-24T21:01:07.481Z,100.00
2022-08-24T21:03:34.362Z,100.00
2022-08-24T21:06:01.041Z,100.00
2022-08-24T21:08:27.672Z,100.00
2022-08-24T21:10:55.047Z,100.00
2022-08-24T21:13:21.901Z,100.00
2022-08-24T21:15:48.971Z,100.00
2022-08-24T21:18:15.767Z,100.00
2022-08-24T21:20:49.251Z,100.00
2022-08-24T21:23:30.094Z,100.00
2022-08-24T21:25:57.278Z,100.00
2022-08-24T21:28:24.033Z,100.00
2022-08-24T21:30:50.635Z,100.00
2022-08-24T21:33:32.496Z,100.00
2022-08-24T21:35:59.486Z,100.00
2022-08-24T21:38:26.975Z,100.00
2022-08-24T21:40:54.371Z,100.00
2022-08-24T21:43:21.744Z,100.00
2022-08-24T21:45:50.169Z,100.00
2022-08-24T21:48:18.680Z,100.00
2022-08-24T21:50:45.778Z,100.00
2022-08-24T21:53:12.367Z,100.00
2022-08-24T21:55:41.390Z,100.00
2022-08-24T21:58:10.034Z,100.00
2022-08-24T22:00:36.943Z,100.00
2022-08-24T22:03:05.054Z,100.00
2022-08-24T22:05:32.224Z,100.00
2022-08-24T22:07:58.934Z,100.00
2022-08-24T22:10:26.422Z,100.00
2022-08-24T22:12:53.728Z,100.00
2022-08-24T22:15:23.416Z,100.00
2022-08-24T22:17:52.611Z,100.00
2022-08-24T22:20:23.004Z,100.00
2022-08-24T22:22:50.455Z,100.00
2022-08-24T22:25:17.125Z,100.00
2022-08-24T22:27:45.831Z,100.00
2022-08-24T22:30:15.066Z,100.00
2022-08-24T22:32:41.604Z,100.00
2022-08-24T22:35:08.656Z,100.00
2022-08-24T22:37:35.739Z,100.00
2022-08-24T22:40:03.905Z,100.00
2022-08-24T22:42:30.785Z,100.00
2022-08-24T22:44:58.651Z,100.00
2022-08-24T22:47:27.013Z,100.00
2022-08-24T22:49:55.020Z,100.00
2022-08-24T22:52:21.633Z,100.00
2022-08-24T22:54:48.532Z,100.00
2022-08-24T22:57:17.674Z,100.00
2022-08-24T22:59:46.590Z,100.00
2022-08-24T23:02:16.632Z,100.00
2022-08-24T23:04:49.921Z,100.00
2022-08-24T23:07:20.580Z,100.00
2022-08-24T23:09:47.527Z,100.00
2022-08-24T23:12:17.978Z,100.00
2022-08-24T23:14:44.862Z,100.00
2022-08-24T23:17:12.125Z,100.00
2022-08-24T23:19:54.107Z,100.00
2022-08-24T23:22:21.284Z,100.00
2022-08-24T23:24:48.784Z,100.00
2022-08-24T23:27:17.328Z,100.00
2022-08-24T23:29:44.663Z,100.00
2022-08-24T23:32:12.036Z,100.00
2022-08-24T23:34:38.859Z,100.00
2022-08-24T23:37:05.919Z,100.00
2022-08-24T23:39:32.608Z,100.00
2022-08-24T23:41:59.470Z,100.00
2022-08-24T23:44:28.714Z,100.00
2022-08-24T23:46:58.044Z,100.00
2022-08-24T23:49:25.766Z,100.00
2022-08-24T23:51:52.937Z,100.00
2022-08-24T23:54:20.698Z,100.00
2022-08-24T23:56:48.739Z,100.00
2022-08-24T23:59:19.414Z,100.00
